Time;durP1;ratioP1;P1;durP2;ratioP2;P2;SDS_P1;SDS_P2;PMS_P1;PMS_P2;Temp;Humidity;BMP_temperature;BMP_pressure;BME280_temperature;BME280_humidity;BME280_pressure;Samples;Min_cycle;Max_cycle;Signal;HPM_P1;HPM_P2
2022/09/18 00:01:32;;;;;;;2.23;0.43;;;21.60;75.50;;;;;;5071829;28;20246;-68
2022/09/18 00:04:02;;;;;;;2.23;0.70;;;21.80;76.90;;;;;;5071671;28;20576;-69
2022/09/18 00:06:35;;;;;;;1.13;0.57;;;22.10;81.00;;;;;;5071764;28;20176;-69
2022/09/18 00:09:05;;;;;;;2.47;0.60;;;22.10;77.30;;;;;;5066273;28;20187;-69
2022/09/18 00:11:37;;;;;;;1.33;0.60;;;22.80;81.00;;;;;;5061723;28;20220;-68
2022/09/18 00:14:09;;;;;;;2.10;0.50;;;23.40;73.20;;;;;;5071509;28;20191;-68
2022/09/18 00:16:38;;;;;;;1.93;0.70;;;22.70;66.40;;;;;;5071878;28;20183;-67
2022/09/18 00:19:05;;;;;;;1.40;0.60;;;22.90;72.40;;;;;;5071104;28;20194;-67
2022/09/18 00:21:36;;;;;;;3.40;0.60;;;23.30;68.90;;;;;;5071825;28;20182;-67
2022/09/18 00:24:05;;;;;;;0.97;0.57;;;23.30;66.80;;;;;;5071211;28;20365;-67
2022/09/18 00:26:32;;;;;;;1.47;0.87;;;22.90;70.00;;;;;;5071857;28;20198;-68
2022/09/18 00:29:00;;;;;;;1.07;0.50;;;23.30;71.00;;;;;;5070374;28;20191;-68
2022/09/18 00:31:30;;;;;;;1.13;0.40;;;23.50;63.30;;;;;;5071504;28;20187;-69
2022/09/18 00:33:59;;;;;;;2.80;0.60;;;23.90;62.40;;;;;;5071547;28;20188;-69
2022/09/18 00:36:29;;;;;;;1.90;0.70;;;23.90;60.60;;;;;;5071588;28;20211;-69
2022/09/18 00:39:01;;;;;;;3.00;0.50;;;23.90;61.60;;;;;;5071679;28;20188;-69
2022/09/18 00:41:34;;;;;;;2.13;0.60;;;24.10;60.40;;;;;;5071647;28;20179;-69
2022/09/18 00:44:29;;;;;;;2.63;0.70;;;24.40;58.40;;;;;;5071414;28;20255;-69
2022/09/18 00:47:14;;;;;;;2.97;0.73;;;24.20;57.80;;;;;;5071461;28;20201;-69
2022/09/18 00:49:44;;;;;;;2.23;0.47;;;24.00;56.90;;;;;;5068692;28;20645;-69
2022/09/18 00:52:14;;;;;;;3.43;0.70;;;24.00;55.90;;;;;;5071435;28;20218;-71
2022/09/18 00:54:45;;;;;;;3.63;0.73;;;23.70;58.40;;;;;;5068555;28;20191;-70
2022/09/18 00:57:19;;;;;;;1.00;0.50;;;23.30;55.60;;;;;;5069855;28;20627;-69
2022/09/18 00:59:49;;;;;;;1.37;0.50;;;23.90;64.90;;;;;;5071497;28;20176;-72
2022/09/18 01:02:16;;;;;;;0.80;0.53;;;24.20;59.80;;;;;;5071452;28;20205;-71
2022/09/18 01:04:44;;;;;;;0.77;0.43;;;24.60;56.20;;;;;;5071175;28;20266;-69
2022/09/18 01:07:42;;;;;;;2.80;0.57;;;24.90;54.60;;;;;;5071398;28;20271;-70
2022/09/18 01:10:37;;;;;;;1.80;0.50;;;25.20;53.50;;;;;;5071060;28;20309;-68
2022/09/18 01:13:25;;;;;;;1.00;0.30;;;25.20;51.10;;;;;;5070720;28;20250;-72
2022/09/18 01:15:52;;;;;;;1.80;0.47;;;24.70;50.00;;;;;;5071196;28;20270;-68
2022/09/18 01:18:47;;;;;;;0.93;0.40;;;24.60;50.80;;;;;;5070882;28;20178;-68
2022/09/18 01:21:19;;;;;;;2.10;0.50;;;24.70;50.00;;;;;;5071029;28;20176;-67
2022/09/18 01:24:02;;;;;;;4.23;0.87;;;24.70;46.40;;;;;;5070747;28;20223;-68
2022/09/18 01:26:39;;;;;;;1.00;0.40;;;25.10;49.00;;;;;;5071219;28;20172;-71
2022/09/18 01:29:13;;;;;;;1.63;0.40;;;25.20;48.80;;;;;;5071103;28;20168;-73
2022/09/18 01:31:56;;;;;;;1.27;0.50;;;25.80;51.30;;;;;;5069692;28;20305;-70
2022/09/18 01:34:34;;;;;;;1.03;0.40;;;25.40;45.80;;;;;;5070611;28;20230;-72
2022/09/18 01:37:30;;;;;;;1.13;0.50;;;25.30;46.40;;;;;;5070948;28;20183;-68
2022/09/18 01:40:23;;;;;;;0.90;0.47;;;25.40;46.90;;;;;;5048955;28;20338;-70
2022/09/18 01:42:56;;;;;;;0.47;0.30;;;25.70;47.20;;;;;;5050897;28;20206;-70
2022/09/18 01:45:28;;;;;;;1.23;0.50;;;25.70;42.60;;;;;;5070700;28;20195;-68
2022/09/18 01:48:03;;;;;;;2.27;0.70;;;25.60;44.50;;;;;;5074647;28;20172;-71
2022/09/18 01:50:37;;;;;;;0.90;0.50;;;25.80;44.50;;;;;;5074644;28;20175;-68
2022/09/18 01:53:15;;;;;;;1.43;0.50;;;25.60;42.70;;;;;;5073611;28;20687;-71
2022/09/18 01:55:48;;;;;;;1.63;0.50;;;26.00;44.70;;;;;;5074510;28;20532;-70
2022/09/18 01:58:20;;;;;;;3.07;0.43;;;25.80;45.80;;;;;;5073047;28;20258;-72
2022/09/18 02:00:55;;;;;;;1.50;0.50;;;26.50;45.50;;;;;;5074375;28;20302;-69
2022/09/18 02:03:30;;;;;;;1.30;0.60;;;26.30;42.20;;;;;;5074116;28;20186;-68
2022/09/18 02:06:11;;;;;;;1.93;0.63;;;26.20;41.00;;;;;;5074305;28;20184;-69
2022/09/18 02:08:51;;;;;;;1.17;0.37;;;26.40;41.90;;;;;;5072600;28;20179;-69
2022/09/18 02:11:20;;;;;;;4.30;0.60;;;26.50;41.00;;;;;;5074021;28;20530;-69
2022/09/18 02:14:04;;;;;;;1.33;0.50;;;26.10;40.50;;;;;;5074068;28;20180;-72
2022/09/18 02:16:34;;;;;;;2.50;0.60;;;26.20;41.20;;;;;;5074054;28;20218;-68
2022/09/18 02:19:09;;;;;;;2.53;0.50;;;26.30;43.60;;;;;;5073528;28;20195;-68
2022/09/18 02:21:38;;;;;;;2.43;0.50;;;26.30;40.90;;;;;;5074060;28;20203;-68
2022/09/18 02:24:09;;;;;;;2.77;0.70;;;25.70;36.90;;;;;;5073791;28;20697;-67
2022/09/18 02:26:39;;;;;;;1.10;0.43;;;25.90;40.30;;;;;;5073933;28;20195;-68
2022/09/18 02:29:09;;;;;;;1.37;0.60;;;26.20;38.00;;;;;;5072203;28;20677;-68
2022/09/18 02:31:40;;;;;;;1.27;0.50;;;26.50;39.80;;;;;;5073916;28;20179;-69
2022/09/18 02:34:09;;;;;;;1.60;0.57;;;26.20;37.70;;;;;;5073684;28;20218;-69
2022/09/18 02:36:43;;;;;;;1.80;0.87;;;26.30;37.60;;;;;;5074144;28;20168;-68
2022/09/18 02:39:25;;;;;;;1.17;0.60;;;26.30;38.80;;;;;;5073301;28;20271;-68
2022/09/18 02:42:22;;;;;;;0.70;0.50;;;26.10;37.10;;;;;;5073506;28;20190;-67
2022/09/18 02:45:08;;;;;;;1.10;0.50;;;26.40;39.50;;;;;;5073335;28;20180;-72
2022/09/18 02:47:35;;;;;;;0.93;0.40;;;26.40;37.20;;;;;;5073245;28;20172;-69
2022/09/18 02:50:29;;;;;;;2.03;0.60;;;26.00;36.50;;;;;;5073508;28;20230;-67
2022/09/18 02:53:29;;;;;;;1.50;0.53;;;26.50;40.10;;;;;;5073425;28;21012;-68
2022/09/18 02:56:06;;;;;;;1.37;0.50;;;26.30;35.50;;;;;;5068585;28;20263;-68
2022/09/18 02:58:44;;;;;;;2.93;0.70;;;25.50;34.60;;;;;;5072001;28;20193;-68
2022/09/18 03:01:13;;;;;;;2.13;0.80;;;25.60;34.90;;;;;;5073304;28;20179;-68
2022/09/18 03:03:41;;;;;;;1.70;0.70;;;25.20;36.00;;;;;;5073313;28;20583;-73
2022/09/18 03:06:09;;;;;;;1.00;0.50;;;25.10;36.80;;;;;;5073431;28;20679;-67
2022/09/18 03:08:36;;;;;;;0.60;0.40;;;25.50;38.90;;;;;;5072847;28;20188;-68
2022/09/18 03:11:04;;;;;;;1.13;0.40;;;25.60;36.40;;;;;;5073042;28;20649;-71
2022/09/18 03:13:32;;;;;;;0.93;0.70;;;25.70;35.60;;;;;;5070705;28;20226;-70
2022/09/18 03:15:59;;;;;;;1.60;0.60;;;25.40;35.40;;;;;;5072832;28;20229;-71
2022/09/18 03:18:27;;;;;;;1.67;0.67;;;25.80;34.00;;;;;;5072818;28;20184;-70
2022/09/18 03:20:54;;;;;;;2.10;0.50;;;25.50;32.30;;;;;;5072529;28;20171;-67
2022/09/18 03:23:22;;;;;;;3.90;0.50;;;25.40;33.70;;;;;;5090636;28;20184;-67
2022/09/18 03:25:51;;;;;;;0.70;0.40;;;25.50;33.50;;;;;;5092811;28;20238;-67
2022/09/18 03:28:18;;;;;;;1.97;0.50;;;25.20;32.80;;;;;;5093036;28;20194;-67
2022/09/18 03:30:48;;;;;;;1.50;0.73;;;25.10;32.50;;;;;;5093000;28;20636;-67
2022/09/18 03:33:16;;;;;;;1.73;0.53;;;25.00;36.40;;;;;;5075680;28;20225;-67
2022/09/18 03:35:44;;;;;;;1.80;0.60;;;25.50;37.60;;;;;;5072706;28;20633;-68
2022/09/18 03:38:11;;;;;;;2.47;0.57;;;25.70;36.60;;;;;;5072661;28;20172;-66
2022/09/18 03:40:39;;;;;;;4.17;0.70;;;25.70;34.80;;;;;;5072323;28;20184;-67
2022/09/18 03:43:06;;;;;;;0.90;0.50;;;25.50;33.70;;;;;;5072520;28;20183;-68
2022/09/18 03:45:33;;;;;;;1.90;0.70;;;25.90;36.40;;;;;;5072541;28;20179;-70
2022/09/18 03:48:01;;;;;;;1.73;1.00;;;25.90;34.70;;;;;;5072363;28;20649;-67
2022/09/18 03:50:29;;;;;;;0.60;0.40;;;25.70;32.60;;;;;;5072138;28;20183;-69
2022/09/18 03:52:56;;;;;;;3.23;0.70;;;25.60;31.60;;;;;;5067630;28;20226;-68
2022/09/18 03:55:24;;;;;;;1.70;0.57;;;25.70;31.30;;;;;;5071762;28;20696;-69
2022/09/18 03:57:52;;;;;;;2.50;0.90;;;25.80;32.10;;;;;;5071088;28;20274;-70
2022/09/18 04:00:20;;;;;;;1.40;0.50;;;25.60;34.30;;;;;;5070837;28;20194;-68
2022/09/18 04:02:47;;;;;;;1.43;0.70;;;25.50;33.50;;;;;;5052278;28;20233;-68
2022/09/18 04:05:15;;;;;;;1.13;0.50;;;25.90;34.90;;;;;;5059962;28;20184;-68
2022/09/18 04:07:42;;;;;;;1.83;0.80;;;24.80;30.70;;;;;;5071943;28;20263;-69
2022/09/18 04:10:10;;;;;;;1.77;0.70;;;24.50;35.40;;;;;;5071131;28;20183;-68
2022/09/18 04:12:37;;;;;;;2.27;0.83;;;24.60;36.30;;;;;;5071622;28;20249;-68
2022/09/18 04:15:05;;;;;;;5.23;0.90;;;24.50;35.90;;;;;;5071472;28;20224;-69
2022/09/18 04:17:32;;;;;;;1.60;0.60;;;24.80;34.70;;;;;;5071846;28;20190;-69
2022/09/18 04:20:00;;;;;;;2.10;0.70;;;25.00;36.10;;;;;;5071195;28;20214;-68
2022/09/18 04:22:27;;;;;;;2.17;0.90;;;25.10;35.40;;;;;;5070357;28;20184;-69
2022/09/18 04:24:55;;;;;;;0.70;0.60;;;24.90;33.70;;;;;;5071306;28;20249;-68
2022/09/18 04:27:22;;;;;;;4.37;0.60;;;24.80;33.40;;;;;;5071811;28;20619;-68
2022/09/18 04:29:50;;;;;;;2.37;0.77;;;24.70;34.00;;;;;;5071652;28;20516;-70
2022/09/18 04:32:17;;;;;;;1.43;0.60;;;24.60;32.10;;;;;;5069636;28;20211;-73
2022/09/18 04:34:44;;;;;;;1.10;0.63;;;24.70;31.80;;;;;;5070338;28;20193;-70
2022/09/18 04:37:12;;;;;;;1.97;0.50;;;24.80;34.10;;;;;;5071068;28;20186;-70
2022/09/18 04:39:40;;;;;;;1.60;0.60;;;24.70;34.90;;;;;;5071383;28;20202;-69
2022/09/18 04:42:07;;;;;;;0.77;0.53;;;24.60;33.90;;;;;;5068396;28;20207;-68
2022/09/18 04:44:35;;;;;;;1.67;0.80;;;24.70;32.20;;;;;;5064213;28;20195;-69
2022/09/18 04:47:02;;;;;;;0.80;0.47;;;24.60;32.00;;;;;;5071548;28;20195;-69
2022/09/18 04:49:29;;;;;;;1.17;0.50;;;24.50;33.50;;;;;;5071310;28;20191;-69
2022/09/18 04:51:57;;;;;;;0.60;0.50;;;24.60;32.10;;;;;;5070606;28;20234;-70
2022/09/18 04:54:24;;;;;;;3.27;0.70;;;24.40;31.70;;;;;;5068901;28;20307;-69
2022/09/18 04:56:51;;;;;;;1.70;0.60;;;24.50;31.10;;;;;;5070744;28;20264;-68
2022/09/18 04:59:20;;;;;;;2.47;0.57;;;24.60;32.60;;;;;;5071334;28;20191;-69
2022/09/18 05:01:47;;;;;;;1.03;0.60;;;24.20;31.50;;;;;;5071004;28;20580;-68
2022/09/18 05:04:15;;;;;;;2.80;0.90;;;24.00;33.30;;;;;;5071169;28;20182;-69
2022/09/18 05:06:42;;;;;;;1.17;0.47;;;23.90;33.00;;;;;;5071202;28;20233;-68
2022/09/18 05:09:10;;;;;;;2.40;0.80;;;24.00;32.80;;;;;;5062750;28;20191;-69
2022/09/18 05:11:37;;;;;;;1.10;0.50;;;23.90;33.30;;;;;;5068581;28;20194;-70
2022/09/18 05:14:05;;;;;;;2.03;0.67;;;23.90;33.80;;;;;;5071115;28;20194;-69
2022/09/18 05:16:32;;;;;;;1.53;0.70;;;24.10;34.50;;;;;;5071022;28;20193;-67
2022/09/18 05:18:59;;;;;;;2.23;0.80;;;24.00;34.00;;;;;;5071375;28;20180;-69
2022/09/18 05:21:27;;;;;;;1.13;0.60;;;23.80;33.10;;;;;;5073054;28;20290;-69
2022/09/18 05:23:54;;;;;;;2.93;0.60;;;23.40;33.50;;;;;;5075032;28;20232;-69
2022/09/18 05:26:22;;;;;;;1.90;0.83;;;23.40;36.10;;;;;;5074960;28;20286;-69
2022/09/18 05:28:49;;;;;;;1.90;0.60;;;23.40;36.30;;;;;;5075071;28;20176;-67
2022/09/18 05:31:17;;;;;;;1.37;0.70;;;23.10;35.00;;;;;;5074762;28;20190;-70
2022/09/18 05:33:45;;;;;;;4.37;0.80;;;23.20;36.00;;;;;;5073560;28;20219;-70
2022/09/18 05:36:12;;;;;;;1.50;0.70;;;23.20;36.20;;;;;;5074503;28;20206;-69
2022/09/18 05:38:39;;;;;;;1.37;0.53;;;23.20;36.80;;;;;;5074686;28;20188;-69
2022/09/18 05:41:08;;;;;;;2.17;0.80;;;23.10;36.60;;;;;;5074734;28;20180;-68
2022/09/18 05:43:35;;;;;;;3.67;0.70;;;23.10;36.70;;;;;;5074743;28;20208;-69
2022/09/18 05:46:03;;;;;;;1.73;0.70;;;23.10;35.10;;;;;;5073630;28;20221;-69
2022/09/18 05:48:30;;;;;;;8.60;0.90;;;23.00;35.30;;;;;;5074724;28;20179;-69
2022/09/18 05:50:58;;;;;;;2.87;0.80;;;22.80;35.40;;;;;;5074381;28;20183;-68
2022/09/18 05:53:25;;;;;;;0.63;0.50;;;22.80;34.80;;;;;;5074455;28;20266;-68
2022/09/18 05:55:53;;;;;;;6.03;0.93;;;22.80;34.40;;;;;;5075054;28;20233;-68
2022/09/18 05:58:21;;;;;;;2.27;0.70;;;22.90;33.90;;;;;;5074425;28;20542;-69
2022/09/18 06:00:50;;;;;;;3.60;0.97;;;22.70;33.30;;;;;;5062493;28;20184;-69
2022/09/18 06:03:17;;;;;;;1.90;0.67;;;22.60;34.00;;;;;;5056768;28;20193;-69
2022/09/18 06:05:52;;;;;;;2.47;1.00;;;22.60;34.00;;;;;;5076989;28;20187;-68
2022/09/18 06:08:21;;;;;;;4.70;1.10;;;22.70;33.80;;;;;;5075775;28;20536;-68
2022/09/18 06:10:49;;;;;;;2.20;0.80;;;22.60;34.10;;;;;;5074778;28;20597;-69
2022/09/18 06:13:18;;;;;;;3.67;0.77;;;22.50;34.80;;;;;;5073941;28;20211;-69
2022/09/18 06:15:47;;;;;;;1.93;0.70;;;22.50;33.90;;;;;;5073781;28;20512;-69
2022/09/18 06:18:15;;;;;;;1.43;0.70;;;22.50;34.30;;;;;;5073831;28;20278;-68
2022/09/18 06:20:44;;;;;;;2.20;0.50;;;22.40;34.50;;;;;;5073869;28;20286;-68
2022/09/18 06:23:11;;;;;;;1.90;0.90;;;22.40;35.40;;;;;;5073733;28;20179;-68
2022/09/18 06:25:39;;;;;;;3.93;0.90;;;22.30;34.80;;;;;;5073588;28;20305;-69
2022/09/18 06:28:06;;;;;;;4.57;0.63;;;22.20;34.80;;;;;;5074067;28;20180;-68
2022/09/18 06:30:35;;;;;;;2.20;0.70;;;22.20;35.00;;;;;;5073881;28;20176;-67
2022/09/18 06:33:08;;;;;;;1.60;0.77;;;22.20;34.90;;;;;;5073410;28;20215;-67
2022/09/18 06:35:40;;;;;;;6.33;0.70;;;22.20;35.20;;;;;;5073531;28;20641;-68
2022/09/18 06:38:09;;;;;;;3.73;0.77;;;22.10;35.90;;;;;;5073781;28;20249;-68
2022/09/18 06:40:36;;;;;;;3.83;0.90;;;22.00;35.20;;;;;;5073705;28;20183;-68
2022/09/18 06:43:04;;;;;;;1.17;0.60;;;22.00;36.00;;;;;;5073764;28;20267;-69
2022/09/18 06:45:32;;;;;;;1.23;0.70;;;22.10;36.70;;;;;;5073445;28;20328;-67
2022/09/18 06:48:03;;;;;;;2.50;0.73;;;22.10;36.30;;;;;;5073771;28;20183;-68
2022/09/18 06:50:31;;;;;;;3.27;0.80;;;22.20;36.50;;;;;;5073248;28;20184;-71
2022/09/18 06:53:16;;;;;;;2.13;0.70;;;22.10;36.50;;;;;;5073293;28;20307;-69
2022/09/18 06:55:44;;;;;;;1.53;1.00;;;22.10;36.20;;;;;;5073320;28;20184;-68
2022/09/18 06:58:11;;;;;;;4.93;1.50;;;22.00;37.60;;;;;;5073025;28;20665;-69
2022/09/18 07:00:38;;;;;;;5.60;1.00;;;21.70;37.20;;;;;;5073349;28;20171;-69
2022/09/18 07:03:06;;;;;;;7.17;1.07;;;21.50;36.20;;;;;;5073260;28;20275;-67
2022/09/18 07:05:33;;;;;;;3.93;1.20;;;21.20;37.10;;;;;;5073091;28;20186;-69
2022/09/18 07:08:01;;;;;;;3.80;1.20;;;21.00;37.60;;;;;;5073260;28;20175;-69
2022/09/18 07:10:28;;;;;;;1.97;1.20;;;20.90;38.00;;;;;;5072929;28;20238;-68
2022/09/18 07:12:57;;;;;;;8.60;1.70;;;20.80;38.90;;;;;;5073118;28;20207;-68
2022/09/18 07:15:25;;;;;;;3.13;1.43;;;20.80;40.10;;;;;;5072725;28;20271;-69
2022/09/18 07:17:57;;;;;;;7.07;1.57;;;20.70;41.10;;;;;;5072839;28;20184;-69
2022/09/18 07:20:24;;;;;;;7.80;1.47;;;20.60;40.50;;;;;;5072518;28;20184;-69
2022/09/18 07:22:57;;;;;;;3.80;0.90;;;20.50;42.20;;;;;;5073010;28;20176;-68
2022/09/18 07:25:26;;;;;;;2.87;0.80;;;20.30;42.40;;;;;;5072444;28;20704;-68
2022/09/18 07:27:53;;;;;;;2.57;1.20;;;20.20;44.10;;;;;;5072779;28;20182;-68
2022/09/18 07:30:21;;;;;;;3.60;1.37;;;20.20;43.90;;;;;;5072874;28;20175;-68
2022/09/18 07:32:48;;;;;;;2.10;0.70;;;20.10;45.30;;;;;;5072855;28;20304;-69
2022/09/18 07:35:16;;;;;;;4.23;0.67;;;19.90;44.70;;;;;;5072569;28;20184;-69
2022/09/18 07:37:43;;;;;;;3.10;0.80;;;19.90;45.20;;;;;;5072709;28;20886;-68
2022/09/18 07:40:11;;;;;;;2.03;0.90;;;19.80;45.20;;;;;;5072575;28;20232;-69
2022/09/18 07:42:39;;;;;;;1.40;0.70;;;19.70;45.60;;;;;;5072773;28;20172;-67
2022/09/18 07:45:07;;;;;;;4.43;0.80;;;19.60;46.50;;;;;;5071708;28;20183;-68
2022/09/18 07:47:35;;;;;;;3.77;0.90;;;19.50;47.10;;;;;;5071313;28;20186;-70
2022/09/18 07:50:02;;;;;;;1.67;0.80;;;19.40;47.90;;;;;;5072356;28;20208;-69
2022/09/18 07:52:30;;;;;;;2.00;0.70;;;19.40;48.80;;;;;;5073136;28;20560;-68
2022/09/18 07:54:58;;;;;;;4.47;1.07;;;19.30;49.60;;;;;;5074742;28;20282;-68
2022/09/18 07:57:26;;;;;;;2.70;0.70;;;19.30;49.00;;;;;;5075483;28;20182;-68
2022/09/18 07:59:54;;;;;;;2.40;0.97;;;19.10;49.90;;;;;;5075657;28;20191;-68
2022/09/18 08:02:21;;;;;;;20.13;3.30;;;19.00;50.90;;;;;;5075041;28;20177;-68
2022/09/18 08:04:49;;;;;;;10.67;2.60;;;19.00;49.60;;;;;;5072335;28;20254;-68
2022/09/18 08:07:17;;;;;;;6.97;1.60;;;18.90;49.30;;;;;;5072065;28;20176;-68
2022/09/18 08:09:44;;;;;;;7.00;1.90;;;18.90;50.00;;;;;;5072186;28;20295;-68
2022/09/18 08:12:12;;;;;;;7.07;1.37;;;18.90;51.20;;;;;;5071662;28;20957;-68
2022/09/18 08:14:40;;;;;;;3.40;1.10;;;18.70;52.30;;;;;;5071927;28;20180;-68
2022/09/18 08:17:08;;;;;;;8.07;1.57;;;18.50;54.10;;;;;;5071700;28;20170;-68
2022/09/18 08:19:35;;;;;;;10.17;1.37;;;18.50;56.80;;;;;;5072010;28;20184;-67
2022/09/18 08:22:05;;;;;;;4.70;1.20;;;18.30;58.50;;;;;;5072718;28;20206;-69
2022/09/18 08:24:33;;;;;;;2.53;0.80;;;18.20;59.50;;;;;;5071409;28;20219;-67
2022/09/18 08:27:03;;;;;;;2.83;0.80;;;18.20;60.30;;;;;;5072959;28;20188;-67
2022/09/18 08:29:31;;;;;;;2.77;1.23;;;18.20;59.20;;;;;;5071891;28;20179;-68
2022/09/18 08:31:59;;;;;;;3.20;1.33;;;18.20;59.50;;;;;;5071778;28;20243;-68
2022/09/18 08:34:27;;;;;;;2.07;1.27;;;18.20;59.90;;;;;;5071568;28;20186;-69
2022/09/18 08:36:55;;;;;;;5.20;1.23;;;18.10;58.50;;;;;;5071651;28;20619;-70
2022/09/18 08:39:23;;;;;;;5.97;1.50;;;18.10;59.30;;;;;;5071764;28;20218;-67
2022/09/18 08:42:24;;;;;;;4.60;1.53;;;18.00;60.50;;;;;;5071631;28;20172;-68
2022/09/18 08:45:16;;;;;;;2.83;1.63;;;18.00;62.10;;;;;;5071463;28;20260;-67
2022/09/18 08:47:51;;;;;;;3.30;1.30;;;17.90;63.90;;;;;;5071771;28;20228;-67
2022/09/18 08:50:31;;;;;;;3.27;1.50;;;17.80;64.40;;;;;;5071316;28;20184;-67
2022/09/18 08:53:06;;;;;;;4.47;1.93;;;17.70;70.20;;;;;;5071696;28;20585;-68
2022/09/18 08:55:39;;;;;;;3.03;1.40;;;17.70;67.90;;;;;;5071798;28;20207;-67
2022/09/18 08:58:29;;;;;;;2.57;1.20;;;17.70;67.90;;;;;;5075605;28;20168;-68
2022/09/18 09:01:14;;;;;;;2.60;1.40;;;17.70;65.90;;;;;;5075727;28;20176;-69
2022/09/18 09:03:52;;;;;;;4.17;1.60;;;17.60;64.90;;;;;;5075688;28;20187;-66
2022/09/18 09:06:43;;;;;;;3.70;1.70;;;17.50;66.90;;;;;;5071987;28;20218;-68
2022/09/18 09:09:27;;;;;;;3.37;1.53;;;17.50;68.30;;;;;;5068623;28;20229;-70
2022/09/18 09:12:01;;;;;;;4.13;1.57;;;17.40;69.40;;;;;;5073111;28;20191;-70
2022/09/18 09:15:05;;;;;;;2.33;1.50;;;17.30;70.80;;;;;;5076240;28;20179;-66
2022/09/18 09:17:52;;;;;;;3.87;2.13;;;17.30;68.80;;;;;;5076846;28;20689;-68
2022/09/18 09:20:32;;;;;;;3.60;1.83;;;17.30;70.90;;;;;;5076553;28;20183;-67
2022/09/18 09:23:22;;;;;;;4.90;1.57;;;17.20;71.80;;;;;;5076891;28;20179;-68
2022/09/18 09:26:14;;;;;;;3.03;1.80;;;17.10;74.80;;;;;;5075171;28;20314;-69
2022/09/18 09:29:07;;;;;;;6.33;1.53;;;17.10;75.10;;;;;;5076521;28;20645;-69
2022/09/18 09:31:40;;;;;;;2.77;1.30;;;17.00;74.30;;;;;;5076817;28;20176;-69
2022/09/18 09:34:25;;;;;;;2.23;1.07;;;17.00;78.70;;;;;;5076239;28;20215;-68
2022/09/18 09:36:56;;;;;;;1.53;1.00;;;16.90;80.40;;;;;;5076163;28;20188;-69
2022/09/18 09:39:34;;;;;;;2.17;1.00;;;16.90;84.30;;;;;;5076193;28;20171;-68
2022/09/18 09:42:04;;;;;;;3.23;1.03;;;16.80;84.80;;;;;;5076431;28;20258;-67
2022/09/18 09:44:40;;;;;;;1.60;1.00;;;16.70;88.50;;;;;;5076375;28;20543;-69
2022/09/18 09:47:51;;;;;;;1.90;1.10;;;16.70;90.00;;;;;;5074565;28;20187;-70
2022/09/18 09:50:40;;;;;;;2.30;1.00;;;16.50;93.00;;;;;;5047637;28;20199;-70
2022/09/18 09:53:11;;;;;;;2.00;1.00;;;16.30;94.50;;;;;;5076078;28;20269;-68
2022/09/18 09:56:17;;;;;;;3.80;1.20;;;16.30;94.40;;;;;;5076325;28;20179;-67
2022/09/18 09:59:04;;;;;;;4.37;1.13;;;16.20;98.50;;;;;;5073068;28;20278;-68
2022/09/18 10:02:03;;;;;;;4.33;1.10;;;16.00;99.90;;;;;;5075894;28;20172;-69
2022/09/18 10:04:54;;;;;;;1.87;1.13;;;15.80;99.90;;;;;;5076587;28;20187;-70
2022/09/18 10:07:42;;;;;;;3.27;1.20;;;15.70;99.90;;;;;;5075359;28;20183;-68
2022/09/18 10:10:34;;;;;;;1.73;0.93;;;15.60;99.90;;;;;;5075306;28;20555;-70
2022/09/18 10:13:19;;;;;;;3.00;1.60;;;15.60;99.90;;;;;;5076084;28;20253;-70
2022/09/18 10:16:00;;;;;;;2.50;1.40;;;15.50;99.90;;;;;;5075882;28;20174;-68
2022/09/18 10:18:39;;;;;;;3.03;1.50;;;15.50;99.90;;;;;;5075660;28;20719;-68
2022/09/18 10:21:16;;;;;;;2.43;1.07;;;15.40;99.90;;;;;;5055812;28;20195;-70
2022/09/18 10:24:15;;;;;;;3.13;1.30;;;15.30;99.90;;;;;;5055847;28;20172;-71
2022/09/18 10:26:48;;;;;;;2.30;1.40;;;15.10;99.90;;;;;;5055500;28;20188;-68
2022/09/18 10:29:18;;;;;;;3.10;1.63;;;15.10;99.90;;;;;;5061034;28;20593;-68
2022/09/18 10:31:52;;;;;;;3.60;1.20;;;15.00;99.90;;;;;;5075063;28;20187;-68
2022/09/18 10:34:39;;;;;;;1.40;1.00;;;15.10;99.90;;;;;;5075469;28;20183;-68
2022/09/18 10:37:29;;;;;;;3.73;1.50;;;15.00;99.90;;;;;;5073996;28;20191;-69
2022/09/18 10:40:01;;;;;;;1.87;1.40;;;14.90;99.90;;;;;;5065861;28;20203;-72
2022/09/18 10:42:34;;;;;;;5.83;1.70;;;15.00;99.90;;;;;;5074234;28;20190;-69
2022/09/18 10:45:19;;;;;;;7.03;2.23;;;14.90;99.90;;;;;;5075288;28;20171;-69
2022/09/18 10:47:47;;;;;;;7.40;2.37;;;14.90;99.90;;;;;;5073642;28;20218;-68
2022/09/18 10:50:18;;;;;;;5.43;1.17;;;14.90;99.90;;;;;;5075140;28;20177;-68
2022/09/18 10:52:52;;;;;;;1.40;1.07;;;14.80;99.90;;;;;;5075116;28;20211;-71
2022/09/18 10:55:28;;;;;;;3.67;1.30;;;14.90;99.90;;;;;;5075210;28;20167;-69
2022/09/18 10:58:12;;;;;;;2.47;1.03;;;14.80;99.90;;;;;;5075108;28;20188;-69
2022/09/18 11:01:01;;;;;;;2.90;1.40;;;14.80;99.90;;;;;;5075833;28;20179;-69
2022/09/18 11:03:38;;;;;;;2.80;1.07;;;14.80;99.90;;;;;;5075729;28;20263;-68
2022/09/18 11:06:14;;;;;;;3.13;1.10;;;14.80;99.90;;;;;;5074957;28;20199;-70
2022/09/18 11:08:48;;;;;;;2.73;0.93;;;15.00;99.90;;;;;;5074736;28;20186;-69
2022/09/18 11:11:29;;;;;;;2.30;0.93;;;15.00;99.90;;;;;;5074557;28;20239;-70
2022/09/18 11:14:16;;;;;;;3.07;1.20;;;15.00;99.90;;;;;;5074327;28;20242;-69
2022/09/18 11:16:48;;;;;;;2.77;1.00;;;15.10;99.90;;;;;;5074624;28;20203;-69
2022/09/18 11:19:23;;;;;;;3.13;0.77;;;15.20;99.90;;;;;;5073611;28;20180;-69
2022/09/18 11:21:58;;;;;;;2.87;0.97;;;15.10;99.90;;;;;;5073246;28;20181;-69
2022/09/18 11:24:34;;;;;;;3.47;1.10;;;15.20;99.90;;;;;;5074250;28;20722;-67
2022/09/18 11:27:16;;;;;;;4.37;1.23;;;15.30;99.90;;;;;;5074261;28;20176;-68
2022/09/18 11:29:44;;;;;;;2.27;1.47;;;15.30;99.90;;;;;;5054431;28;20286;-68
2022/09/18 11:32:16;;;;;;;3.90;1.50;;;15.20;99.90;;;;;;5054455;28;20206;-68
2022/09/18 11:35:02;;;;;;;4.50;1.83;;;15.10;99.90;;;;;;5058617;28;20552;-69
2022/09/18 11:38:06;;;;;;;4.33;1.73;;;15.00;99.90;;;;;;5073771;28;20645;-68
2022/09/18 11:40:53;;;;;;;3.87;1.60;;;14.90;99.90;;;;;;5062064;28;20239;-67
2022/09/18 11:43:28;;;;;;;2.53;1.20;;;14.80;99.90;;;;;;5072915;28;20179;-69
2022/09/18 11:46:05;;;;;;;4.10;1.80;;;14.80;99.90;;;;;;5074026;28;20180;-68
2022/09/18 11:48:53;;;;;;;2.80;1.50;;;14.80;99.90;;;;;;5073765;28;20563;-69
2022/09/18 11:51:25;;;;;;;4.33;1.30;;;14.80;99.90;;;;;;5073810;28;20179;-67
2022/09/18 11:54:03;;;;;;;3.23;1.20;;;14.80;99.90;;;;;;5072530;28;20222;-67
2022/09/18 11:56:51;;;;;;;4.87;1.30;;;14.90;99.90;;;;;;5072530;28;20173;-69
2022/09/18 11:59:36;;;;;;;3.27;1.30;;;14.80;99.90;;;;;;5073595;28;20248;-69
2022/09/18 12:02:37;;;;;;;3.00;1.20;;;14.80;99.90;;;;;;5073388;28;20588;-68
2022/09/18 12:05:18;;;;;;;1.50;0.70;;;14.80;99.90;;;;;;5073279;28;20261;-68
2022/09/18 12:07:55;;;;;;;5.00;1.23;;;14.80;99.90;;;;;;5073239;28;20184;-68
2022/09/18 12:10:53;;;;;;;2.80;1.17;;;14.70;99.90;;;;;;5074005;28;20182;-68
2022/09/18 12:13:45;;;;;;;3.37;1.20;;;14.70;99.90;;;;;;5062657;28;20258;-70
2022/09/18 12:16:29;;;;;;;2.43;0.90;;;14.60;99.90;;;;;;5073390;28;20233;-69
2022/09/18 12:19:20;;;;;;;2.33;1.00;;;14.40;99.90;;;;;;5073181;28;20187;-69
2022/09/18 12:22:10;;;;;;;3.10;1.20;;;14.40;99.90;;;;;;5073575;28;20263;-68
2022/09/18 12:24:37;;;;;;;4.93;1.10;;;14.40;99.90;;;;;;5063924;28;20685;-69
2022/09/18 12:27:25;;;;;;;3.57;1.33;;;14.30;99.90;;;;;;5072941;28;20240;-69
2022/09/18 12:30:05;;;;;;;4.20;1.20;;;14.40;99.90;;;;;;5072848;28;20192;-68
2022/09/18 12:32:35;;;;;;;1.83;0.87;;;14.50;99.90;;;;;;5073344;28;20229;-69
2022/09/18 12:35:11;;;;;;;2.70;1.17;;;14.60;99.90;;;;;;5072903;28;20244;-67
2022/09/18 12:37:45;;;;;;;2.13;1.03;;;14.50;99.90;;;;;;5073139;28;20190;-69
2022/09/18 12:40:33;;;;;;;4.47;1.10;;;14.50;99.90;;;;;;5073420;28;20179;-69
2022/09/18 12:43:04;;;;;;;4.33;1.10;;;14.40;99.90;;;;;;5073570;28;20183;-67
2022/09/18 12:45:49;;;;;;;3.27;1.03;;;14.40;99.90;;;;;;5073664;28;20170;-69
2022/09/18 12:48:56;;;;;;;5.57;1.80;;;14.40;99.90;;;;;;5073117;28;20191;-69
2022/09/18 12:51:42;;;;;;;3.73;1.00;;;14.40;99.90;;;;;;5073291;28;20184;-68
2022/09/18 12:54:29;;;;;;;2.90;1.10;;;14.30;99.90;;;;;;5073453;28;20189;-67
2022/09/18 13:03:43;;;;;;;2.83;1.13;;;13.70;99.90;;;;;;5059383;28;20190;-67
2022/09/18 13:06:22;;;;;;;6.60;1.53;;;13.60;99.90;;;;;;5074048;28;20648;-67
2022/09/18 13:08:57;;;;;;;2.13;0.80;;;13.40;99.90;;;;;;5073346;28;20613;-67
2022/09/18 13:11:53;;;;;;;3.03;1.27;;;13.30;99.90;;;;;;5072943;28;20173;-67
2022/09/18 13:14:47;;;;;;;2.47;1.20;;;13.30;99.90;;;;;;5066615;28;20181;-69
2022/09/18 13:17:23;;;;;;;2.67;1.20;;;13.20;99.90;;;;;;5063090;28;20182;-67
2022/09/18 13:20:19;;;;;;;4.10;1.20;;;13.20;99.90;;;;;;5052902;28;20264;-68
2022/09/18 13:22:49;;;;;;;3.97;1.10;;;13.20;99.90;;;;;;5054721;28;20652;-69
2022/09/18 13:25:40;;;;;;;5.60;1.33;;;13.10;99.90;;;;;;5069424;28;20284;-69
2022/09/18 13:28:15;;;;;;;5.67;1.37;;;13.00;99.90;;;;;;5072980;28;20175;-67
2022/09/18 13:30:43;;;;;;;3.07;1.30;;;12.90;99.90;;;;;;5072861;28;20553;-68